createdAt,value
2018-11-03T00:04:02.781Z,8.80
2018-11-03T00:06:31.194Z,8.80
2018-11-03T00:08:59.707Z,8.90
2018-11-03T00:13:56.364Z,8.80
2018-11-03T00:16:24.812Z,8.80
2018-11-03T00:21:21.366Z,8.90
2018-11-03T00:23:49.781Z,8.90
2018-11-03T00:26:18.184Z,8.90
2018-11-03T00:28:46.596Z,8.80
2018-11-03T00:31:15.045Z,8.80
2018-11-03T00:33:43.493Z,8.80
2018-11-03T00:36:11.925Z,8.80
2018-11-03T00:38:40.358Z,8.80
2018-11-03T00:41:08.789Z,8.80
2018-11-03T00:43:37.223Z,8.80
2018-11-03T00:46:05.678Z,8.80
2018-11-03T00:48:34.200Z,8.80
2018-11-03T00:51:02.693Z,8.90
2018-11-03T00:53:31.176Z,8.80
2018-11-03T00:55:59.632Z,8.80
2018-11-03T00:58:28.174Z,8.80
2018-11-03T01:00:56.653Z,8.80
2018-11-03T01:03:25.137Z,8.80
2018-11-03T01:05:53.680Z,8.70
2018-11-03T01:08:22.221Z,8.70
2018-11-03T01:10:50.725Z,8.70
2018-11-03T01:13:19.173Z,8.70
2018-11-03T01:23:12.061Z,8.70
2018-11-03T01:25:40.515Z,8.80
2018-11-03T01:28:08.917Z,8.70
2018-11-03T01:30:37.404Z,8.70
2018-11-03T01:33:05.946Z,8.70
2018-11-03T01:35:34.371Z,8.70
2018-11-03T01:38:02.818Z,8.80
2018-11-03T01:40:31.263Z,8.80
2018-11-03T01:42:59.644Z,8.80
2018-11-03T01:45:28.100Z,8.90
2018-11-03T01:52:52.912Z,8.80
2018-11-03T01:55:21.466Z,8.80
2018-11-03T01:57:49.921Z,8.80
2018-11-03T02:00:18.438Z,8.80
2018-11-03T02:02:46.885Z,8.80
2018-11-03T02:05:15.369Z,8.80
2018-11-03T02:07:43.804Z,8.80
2018-11-03T02:10:12.691Z,8.70
2018-11-03T02:12:41.560Z,8.70
2018-11-03T02:15:10.361Z,8.70
2018-11-03T02:17:38.846Z,8.70
2018-11-03T02:20:08.250Z,8.70
2018-11-03T02:22:36.648Z,8.70
2018-11-03T02:25:05.430Z,8.70
2018-11-03T02:27:33.911Z,8.70
2018-11-03T02:30:02.330Z,8.80
2018-11-03T02:32:30.778Z,8.80
2018-11-03T02:34:59.246Z,8.80
2018-11-03T02:37:27.713Z,8.70
2018-11-03T02:39:56.304Z,8.80
2018-11-03T02:42:24.724Z,8.80
2018-11-03T02:44:53.182Z,8.80
2018-11-03T02:47:21.630Z,8.80
2018-11-03T02:49:50.089Z,8.80
2018-11-03T02:52:18.605Z,8.80
2018-11-03T02:54:47.059Z,8.80
2018-11-03T02:59:43.641Z,8.70
2018-11-03T03:02:12.090Z,8.70
2018-11-03T03:04:40.562Z,8.60
2018-11-03T03:12:05.609Z,8.70
2018-11-03T03:14:34.080Z,8.60
2018-11-03T03:17:02.484Z,8.60
2018-11-03T03:19:31.020Z,8.60
2018-11-03T03:21:59.481Z,8.60
2018-11-03T03:29:24.286Z,8.70
2018-11-03T03:34:20.842Z,8.80
2018-11-03T03:36:49.291Z,8.80
2018-11-03T03:39:24.243Z,8.80
2018-11-03T03:45:14.104Z,8.80
2018-11-03T03:47:42.526Z,8.80
2018-11-03T03:50:11.419Z,8.70
2018-11-03T03:52:40.015Z,8.70
2018-11-03T03:55:09.077Z,8.80
2018-11-03T03:57:37.546Z,8.80
2018-11-03T04:02:35.128Z,8.70
2018-11-03T04:05:03.788Z,8.70
2018-11-03T04:07:32.221Z,8.70
2018-11-03T04:10:00.706Z,8.60
2018-11-03T04:12:29.144Z,8.60
2018-11-03T04:14:57.575Z,8.60
2018-11-03T04:17:26.020Z,8.60
2018-11-03T04:19:54.477Z,8.60
2018-11-03T04:22:22.900Z,8.60
2018-11-03T04:24:51.308Z,8.60
2018-11-03T04:29:47.948Z,8.60
2018-11-03T04:32:16.345Z,8.60
2018-11-03T04:34:44.944Z,8.70
2018-11-03T04:37:13.430Z,8.70
2018-11-03T04:39:41.848Z,8.70
2018-11-03T04:42:10.312Z,8.60
2018-11-03T04:44:38.713Z,8.60
2018-11-03T04:47:07.185Z,8.60
2018-11-03T04:49:35.628Z,8.60
2018-11-03T04:52:04.093Z,8.60
2018-11-03T04:54:32.509Z,8.60
2018-11-03T04:57:00.966Z,8.60
2018-11-03T04:59:29.413Z,8.60
2018-11-03T05:01:57.889Z,8.60
2018-11-03T05:04:26.348Z,8.60
2018-11-03T05:06:54.950Z,8.60
2018-11-03T05:09:23.500Z,8.60
2018-11-03T05:11:51.980Z,8.60
2018-11-03T05:14:20.462Z,8.70
2018-11-03T05:16:48.919Z,8.70
2018-11-03T05:19:17.405Z,8.70
2018-11-03T05:21:46.025Z,8.80
2018-11-03T05:24:14.435Z,8.80
2018-11-03T05:26:42.881Z,8.80
2018-11-03T05:29:11.331Z,8.80
2018-11-03T05:34:08.113Z,8.80
2018-11-03T05:36:36.556Z,8.90
2018-11-03T05:39:07.450Z,8.90
2018-11-03T05:41:35.882Z,8.90
2018-11-03T05:44:04.352Z,8.90
2018-11-03T05:46:32.811Z,8.90
2018-11-03T05:49:01.208Z,8.90
2018-11-03T05:51:29.664Z,8.90
2018-11-03T05:53:58.170Z,8.90
2018-11-03T05:56:26.576Z,8.80
2018-11-03T06:03:51.291Z,8.90
2018-11-03T06:08:47.971Z,8.90
2018-11-03T06:11:16.412Z,8.90
2018-11-03T06:13:44.851Z,8.90
2018-11-03T06:16:13.280Z,8.90
2018-11-03T06:18:41.820Z,8.90
2018-11-03T06:23:38.554Z,8.90
2018-11-03T06:26:07.183Z,8.80
2018-11-03T06:28:35.617Z,8.80
2018-11-03T06:33:32.133Z,8.80
2018-11-03T06:36:00.567Z,8.80
2018-11-03T06:38:28.984Z,8.80
2018-11-03T06:43:25.575Z,8.90
2018-11-03T06:48:22.144Z,8.80
2018-11-03T06:50:50.589Z,8.80
2018-11-03T06:53:19.012Z,8.80
2018-11-03T06:55:47.512Z,8.80
2018-11-03T06:58:15.975Z,8.80
2018-11-03T07:00:44.448Z,8.90
2018-11-03T07:03:12.903Z,8.90
2018-11-03T07:05:41.436Z,9.00
2018-11-03T07:08:09.913Z,9.00
2018-11-03T07:10:38.362Z,9.00
2018-11-03T07:13:06.852Z,9.10
2018-11-03T07:15:35.355Z,9.00
2018-11-03T07:18:03.863Z,9.00
2018-11-03T07:20:32.325Z,8.90
2018-11-03T07:23:00.863Z,8.90
2018-11-03T07:25:29.286Z,9.00
2018-11-03T07:27:57.826Z,9.00
2018-11-03T07:30:26.339Z,9.00
2018-11-03T07:35:22.997Z,9.10
2018-11-03T07:37:51.472Z,9.10
2018-11-03T07:45:16.412Z,9.10
2018-11-03T07:47:44.868Z,9.10
2018-11-03T07:50:13.498Z,9.00
2018-11-03T07:52:42.487Z,9.00
2018-11-03T07:55:12.582Z,9.10
2018-11-03T07:57:41.075Z,9.10
2018-11-03T08:00:11.868Z,9.10
2018-11-03T08:02:40.353Z,9.10
2018-11-03T08:05:10.062Z,9.10
2018-11-03T08:07:38.545Z,9.10
2018-11-03T08:10:08.043Z,9.10
2018-11-03T08:12:36.657Z,9.10
2018-11-03T08:15:06.280Z,9.10
2018-11-03T08:17:34.776Z,9.10
2018-11-03T08:20:03.310Z,9.10
2018-11-03T08:22:31.791Z,9.10
2018-11-03T08:25:00.274Z,9.10
2018-11-03T08:27:28.782Z,9.20
2018-11-03T08:32:25.467Z,9.30
2018-11-03T08:34:53.922Z,9.30
2018-11-03T08:37:22.447Z,9.30
2018-11-03T08:48:18.863Z,9.40
2018-11-03T08:50:47.211Z,9.40
2018-11-03T08:53:15.656Z,9.40
2018-11-03T08:55:44.152Z,9.40
2018-11-03T08:58:12.638Z,9.40
2018-11-03T09:00:41.081Z,9.40
2018-11-03T09:03:09.561Z,9.40
2018-11-03T09:05:38.078Z,9.40
2018-11-03T09:08:06.616Z,9.50
2018-11-03T09:10:35.122Z,9.50
2018-11-03T09:13:03.661Z,9.50
2018-11-03T09:15:32.116Z,9.50
2018-11-03T09:18:00.621Z,9.50
2018-11-03T09:20:29.105Z,9.50
2018-11-03T09:22:57.689Z,9.50
2018-11-03T09:27:54.380Z,9.60
2018-11-03T09:30:22.788Z,9.60
2018-11-03T09:32:51.301Z,9.60
2018-11-03T09:35:19.787Z,9.60
2018-11-03T09:37:48.349Z,9.60
2018-11-03T09:40:17.560Z,9.60
2018-11-03T09:42:46.869Z,9.60
2018-11-03T09:45:15.348Z,9.60
2018-11-03T09:47:44.214Z,9.60
2018-11-03T09:50:14.159Z,9.70
2018-11-03T09:52:43.144Z,9.80
2018-11-03T09:55:16.764Z,9.80
2018-11-03T09:57:45.301Z,9.70
2018-11-03T10:00:15.244Z,9.70
2018-11-03T10:05:12.973Z,9.70
2018-11-03T10:07:41.614Z,9.70
2018-11-03T10:10:13.033Z,9.80
2018-11-03T10:15:10.496Z,9.80
2018-11-03T10:17:38.959Z,9.80
2018-11-03T10:20:08.353Z,9.80
2018-11-03T10:22:37.100Z,9.80
2018-11-03T10:25:09.181Z,9.80
2018-11-03T10:27:37.698Z,9.90
2018-11-03T10:30:07.613Z,9.90
2018-11-03T10:32:36.479Z,9.90
2018-11-03T10:35:05.357Z,9.90
2018-11-03T10:37:33.939Z,9.90
2018-11-03T10:40:02.450Z,10.00
2018-11-03T10:42:31.040Z,10.00
2018-11-03T10:44:59.532Z,10.00
2018-11-03T10:47:28.102Z,10.00
2018-11-03T10:49:56.673Z,10.00
2018-11-03T10:52:25.264Z,10.10
2018-11-03T10:57:21.993Z,10.10
2018-11-03T10:59:50.597Z,10.10
2018-11-03T11:02:24.186Z,10.10
2018-11-03T11:04:58.030Z,10.20
2018-11-03T11:07:31.986Z,10.30
2018-11-03T11:10:05.829Z,10.20
2018-11-03T11:12:45.683Z,10.30
2018-11-03T11:15:14.204Z,10.30
2018-11-03T11:17:42.748Z,10.30
2018-11-03T11:20:11.519Z,10.30
2018-11-03T11:22:40.069Z,10.30
2018-11-03T11:25:10.165Z,10.30
2018-11-03T11:27:38.461Z,10.30
2018-11-03T11:30:09.106Z,10.30
2018-11-03T11:32:37.658Z,10.30
2018-11-03T11:35:06.379Z,10.30
2018-11-03T11:37:35.007Z,10.30
2018-11-03T11:40:04.051Z,10.40
2018-11-03T11:42:32.582Z,10.40
2018-11-03T11:45:01.199Z,10.40
2018-11-03T11:49:57.984Z,10.40
2018-11-03T11:52:26.486Z,10.40
2018-11-03T11:54:55.079Z,10.40
2018-11-03T11:57:23.567Z,10.50
2018-11-03T11:59:52.043Z,10.50
2018-11-03T12:02:20.584Z,10.50
2018-11-03T12:04:49.010Z,10.50
2018-11-03T12:12:13.826Z,10.60
2018-11-03T12:17:10.477Z,10.70
2018-11-03T12:19:38.991Z,10.60
2018-11-03T12:22:07.451Z,10.60
2018-11-03T12:27:04.136Z,10.60
2018-11-03T12:32:00.785Z,10.60
2018-11-03T12:34:29.294Z,10.70
2018-11-03T12:36:57.795Z,10.60
2018-11-03T12:39:26.265Z,10.60
2018-11-03T12:44:23.114Z,10.60
2018-11-03T12:46:51.577Z,10.60
2018-11-03T12:49:20.091Z,10.60
2018-11-03T12:54:16.770Z,10.60
2018-11-03T12:56:45.354Z,10.60
2018-11-03T13:04:10.345Z,10.70
2018-11-03T13:06:38.782Z,10.60
2018-11-03T13:09:08.888Z,10.60
2018-11-03T13:11:37.304Z,10.60
2018-11-03T13:16:33.957Z,10.60
2018-11-03T13:19:02.788Z,10.60
2018-11-03T13:26:27.754Z,10.70
2018-11-03T13:28:56.232Z,10.70
2018-11-03T13:31:24.713Z,10.60
2018-11-03T13:33:53.233Z,10.60
2018-11-03T13:36:21.748Z,10.60
2018-11-03T13:38:50.244Z,10.50
2018-11-03T13:41:18.705Z,10.50
2018-11-03T13:43:47.184Z,10.50
2018-11-03T13:46:15.711Z,10.50
2018-11-03T13:48:44.198Z,10.50
2018-11-03T13:58:37.173Z,10.50
2018-11-03T14:01:05.888Z,10.50
2018-11-03T14:03:34.360Z,10.50
2018-11-03T14:06:02.872Z,10.50
2018-11-03T14:08:31.406Z,10.50
2018-11-03T14:10:59.965Z,10.50
2018-11-03T14:13:28.420Z,10.50
2018-11-03T14:15:56.897Z,10.50
2018-11-03T14:18:25.433Z,10.40
2018-11-03T14:20:53.926Z,10.50
2018-11-03T14:28:18.704Z,10.40
2018-11-03T14:30:47.182Z,10.40
2018-11-03T14:38:12.043Z,10.50
2018-11-03T14:40:40.556Z,10.40
2018-11-03T14:43:09.134Z,10.40
2018-11-03T14:45:37.663Z,10.40
2018-11-03T14:50:35.141Z,10.40
2018-11-03T14:53:03.611Z,10.40
2018-11-03T14:55:32.051Z,10.30
2018-11-03T14:58:00.514Z,10.40
2018-11-03T15:00:32.190Z,10.40
2018-11-03T15:03:00.651Z,10.40
2018-11-03T15:05:29.106Z,10.40
2018-11-03T15:10:25.828Z,10.40
2018-11-03T15:15:22.487Z,10.40
2018-11-03T15:20:19.132Z,10.40
2018-11-03T15:22:47.582Z,10.40
2018-11-03T15:25:16.017Z,10.40
2018-11-03T15:32:42.332Z,10.40
2018-11-03T15:35:11.740Z,10.40
2018-11-03T15:37:40.285Z,10.30
2018-11-03T15:42:37.588Z,10.40
2018-11-03T15:47:35.253Z,10.40
2018-11-03T15:50:03.909Z,10.30
2018-11-03T15:52:32.368Z,10.30
2018-11-03T15:55:00.847Z,10.30
2018-11-03T15:57:29.292Z,10.30
2018-11-03T15:59:57.780Z,10.40
2018-11-03T16:02:26.220Z,10.30
2018-11-03T16:14:48.620Z,10.30
2018-11-03T16:17:17.126Z,10.30
2018-11-03T16:22:14.313Z,10.30
2018-11-03T16:24:42.885Z,10.20
2018-11-03T16:27:11.722Z,10.20
2018-11-03T16:34:36.540Z,10.30
2018-11-03T16:37:05.140Z,10.30
2018-11-03T16:42:02.462Z,10.20
2018-11-03T16:44:31.590Z,10.20
2018-11-03T16:47:00.299Z,10.20
2018-11-03T16:51:57.819Z,10.20
2018-11-03T17:00:28.278Z,10.20
2018-11-03T17:02:56.772Z,10.20
2018-11-03T17:07:53.871Z,10.20
2018-11-03T17:10:22.372Z,10.10
2018-11-03T17:12:50.972Z,10.20
2018-11-03T17:15:19.454Z,10.20
2018-11-03T17:17:47.969Z,10.10
2018-11-03T17:20:16.420Z,10.10
2018-11-03T17:22:45.021Z,10.10
2018-11-03T17:25:13.689Z,10.10
2018-11-03T17:27:42.198Z,10.10
2018-11-03T17:32:40.512Z,10.10
2018-11-03T17:35:09.060Z,10.10
2018-11-03T17:37:37.512Z,10.10
2018-11-03T17:40:07.339Z,10.10
2018-11-03T17:42:35.851Z,10.10
2018-11-03T17:45:04.784Z,10.00
2018-11-03T17:47:33.296Z,10.10
2018-11-03T17:50:01.736Z,10.10
2018-11-03T17:52:31.125Z,10.10
2018-11-03T17:59:55.936Z,10.10
2018-11-03T18:02:24.405Z,10.10
2018-11-03T18:04:52.881Z,10.10
2018-11-03T18:07:21.405Z,10.10
2018-11-03T18:09:49.889Z,10.10
2018-11-03T18:12:18.398Z,10.00
2018-11-03T18:14:46.848Z,10.00
2018-11-03T18:17:15.388Z,10.10
2018-11-03T18:19:43.912Z,10.00
2018-11-03T18:22:12.407Z,10.00
2018-11-03T18:24:40.907Z,10.00
2018-11-03T18:27:09.385Z,10.00
2018-11-03T18:29:37.841Z,10.00
2018-11-03T18:32:06.573Z,10.00
2018-11-03T18:34:35.102Z,10.00
2018-11-03T18:37:03.674Z,10.00
2018-11-03T18:39:32.256Z,9.90
2018-11-03T18:42:00.765Z,10.00
2018-11-03T18:44:29.273Z,10.00
2018-11-03T18:49:27.155Z,10.00
2018-11-03T18:51:55.700Z,10.10
2018-11-03T18:54:24.148Z,10.00
2018-11-03T18:56:52.705Z,10.00
2018-11-03T18:59:21.186Z,10.00
2018-11-03T19:01:49.662Z,9.90
2018-11-03T19:04:18.142Z,9.90
2018-11-03T19:06:47.524Z,9.90
2018-11-03T19:09:16.325Z,9.90
2018-11-03T19:11:44.849Z,9.90
2018-11-03T19:19:10.205Z,10.00
2018-11-03T19:21:38.681Z,10.00
2018-11-03T19:24:07.195Z,10.00
2018-11-03T19:26:35.859Z,9.90
2018-11-03T19:29:04.324Z,9.90
2018-11-03T19:31:32.799Z,9.90
2018-11-03T19:34:01.282Z,9.90
2018-11-03T19:38:57.892Z,9.90
2018-11-03T19:41:26.474Z,9.90
2018-11-03T19:43:54.977Z,9.90
2018-11-03T19:46:23.549Z,9.80
2018-11-03T19:48:52.033Z,9.90
2018-11-03T19:51:20.524Z,9.90
2018-11-03T19:53:49.004Z,9.90
2018-11-03T19:56:17.471Z,9.90
2018-11-03T20:03:42.337Z,9.90
2018-11-03T20:06:10.883Z,9.90
2018-11-03T20:11:07.857Z,9.90
2018-11-03T20:13:36.577Z,9.90
2018-11-03T20:16:05.314Z,9.90
2018-11-03T20:18:33.812Z,9.90
2018-11-03T20:23:30.475Z,10.00
2018-11-03T20:25:59.041Z,10.00
2018-11-03T20:28:27.549Z,9.90
2018-11-03T20:30:55.996Z,9.90
2018-11-03T20:33:24.436Z,9.90
2018-11-03T20:35:52.894Z,9.90
2018-11-03T20:38:21.972Z,10.00
2018-11-03T20:40:51.037Z,10.00
2018-11-03T20:43:19.639Z,9.90
2018-11-03T20:45:48.335Z,9.90
2018-11-03T20:48:17.137Z,9.90
2018-11-03T20:50:45.721Z,9.90
2018-11-03T20:55:42.375Z,9.90
2018-11-03T20:58:10.865Z,9.90
2018-11-03T21:00:39.365Z,9.90
2018-11-03T21:03:07.816Z,9.90
2018-11-03T21:05:36.290Z,9.90
2018-11-03T21:10:34.214Z,9.90
2018-11-03T21:15:31.467Z,9.90
2018-11-03T21:17:59.904Z,9.90
2018-11-03T21:20:28.350Z,9.90
2018-11-03T21:22:56.798Z,9.90
2018-11-03T21:30:25.718Z,9.90
2018-11-03T21:32:54.274Z,9.90
2018-11-03T21:40:18.996Z,9.90
2018-11-03T21:42:47.420Z,9.80
2018-11-03T21:45:15.858Z,9.80
2018-11-03T21:47:44.412Z,9.80
2018-11-03T21:52:41.035Z,9.80
2018-11-03T21:55:09.956Z,9.80
2018-11-03T21:57:38.404Z,9.80
2018-11-03T22:00:08.551Z,9.80
2018-11-03T22:02:37.063Z,9.80
2018-11-03T22:05:06.601Z,9.80
2018-11-03T22:07:35.032Z,9.70
2018-11-03T22:10:03.513Z,9.70
2018-11-03T22:12:32.011Z,9.70
2018-11-03T22:19:56.889Z,9.80
2018-11-03T22:22:25.355Z,9.80
2018-11-03T22:24:53.846Z,9.80
2018-11-03T22:27:22.402Z,9.80
2018-11-03T22:29:50.919Z,9.80
2018-11-03T22:32:19.360Z,9.70
2018-11-03T22:37:16.011Z,9.70
2018-11-03T22:39:44.433Z,9.70
2018-11-03T22:44:41.217Z,9.70
2018-11-03T22:49:37.874Z,9.70
2018-11-03T22:52:07.359Z,9.80
2018-11-03T22:54:36.700Z,9.80
2018-11-03T22:57:05.279Z,9.80
2018-11-03T23:02:01.942Z,9.90
2018-11-03T23:06:58.540Z,9.80
2018-11-03T23:09:27.107Z,9.80
2018-11-03T23:14:23.779Z,9.80
2018-11-03T23:16:52.209Z,9.80
2018-11-03T23:21:48.960Z,9.80
2018-11-03T23:24:17.436Z,9.80
2018-11-03T23:26:45.928Z,9.80
2018-11-03T23:29:14.336Z,9.90
2018-11-03T23:31:42.831Z,9.90
2018-11-03T23:34:11.441Z,9.90
2018-11-03T23:39:09.780Z,9.90
2018-11-03T23:41:38.632Z,9.80
2018-11-03T23:44:07.304Z,9.80
2018-11-03T23:46:35.904Z,9.80
2018-11-03T23:51:32.950Z,9.80
2018-11-03T23:54:01.439Z,9.80
2018-11-03T23:56:30.069Z,9.80
2018-11-03T23:58:58.550Z,9.80
